createdAt,value
2019-05-20T00:00:22.591Z,20.33
2019-05-20T00:02:51.443Z,19.23
2019-05-20T00:05:21.871Z,18.53
2019-05-20T00:07:50.700Z,18.73
2019-05-20T00:10:19.608Z,18.07
2019-05-20T00:12:48.468Z,17.97
2019-05-20T00:15:17.302Z,17.20
2019-05-20T00:17:46.115Z,16.33
2019-05-20T00:20:14.915Z,16.80
2019-05-20T00:22:43.749Z,16.50
2019-05-20T00:25:12.710Z,16.30
2019-05-20T00:27:41.499Z,16.33
2019-05-20T00:30:10.344Z,15.33
2019-05-20T00:32:41.653Z,15.33
2019-05-20T00:35:09.711Z,16.77
2019-05-20T00:37:38.729Z,15.47
2019-05-20T00:40:07.735Z,14.83
2019-05-20T00:42:36.598Z,16.17
2019-05-20T00:45:07.583Z,15.20
2019-05-20T00:47:36.803Z,14.83
2019-05-20T00:50:05.705Z,14.17
2019-05-20T00:52:34.603Z,14.90
2019-05-20T00:55:03.805Z,14.17
2019-05-20T00:57:32.955Z,13.73
2019-05-20T01:00:02.261Z,13.33
2019-05-20T01:02:31.523Z,14.37
2019-05-20T01:05:00.387Z,12.53
2019-05-20T01:07:29.285Z,13.13
2019-05-20T01:09:58.155Z,13.10
2019-05-20T01:12:27.044Z,13.57
2019-05-20T01:14:55.858Z,13.10
2019-05-20T01:17:24.965Z,12.50
2019-05-20T01:19:53.774Z,12.17
2019-05-20T01:22:22.961Z,12.23
2019-05-20T01:24:51.753Z,12.97
2019-05-20T01:27:20.556Z,12.77
2019-05-20T01:29:49.379Z,11.87
2019-05-20T01:32:18.433Z,12.87
2019-05-20T01:34:47.254Z,12.47
2019-05-20T01:37:16.169Z,11.37
2019-05-20T01:39:45.001Z,11.60
2019-05-20T01:42:14.208Z,12.17
2019-05-20T01:44:43.031Z,11.77
2019-05-20T01:47:11.842Z,11.43
2019-05-20T01:49:41.007Z,12.03
2019-05-20T01:52:09.894Z,11.60
2019-05-20T01:54:39.212Z,10.73
2019-05-20T01:57:08.042Z,11.30
2019-05-20T01:59:37.051Z,10.13
2019-05-20T02:02:05.938Z,9.47
2019-05-20T02:04:34.848Z,10.83
2019-05-20T02:07:03.760Z,10.63
2019-05-20T02:09:32.732Z,10.20
2019-05-20T02:12:01.732Z,10.17
2019-05-20T02:14:33.761Z,9.43
2019-05-20T02:17:02.923Z,10.17
2019-05-20T02:19:32.012Z,10.87
2019-05-20T02:22:01.393Z,10.70
2019-05-20T02:24:30.229Z,9.30
2019-05-20T02:26:59.004Z,10.33
2019-05-20T02:29:27.902Z,9.70
2019-05-20T02:31:56.824Z,9.03
2019-05-20T02:34:25.895Z,9.00
2019-05-20T02:36:54.815Z,9.60
2019-05-20T02:39:26.468Z,9.30
2019-05-20T02:41:54.132Z,9.00
2019-05-20T02:44:23.020Z,9.10
2019-05-20T02:46:52.051Z,8.43
2019-05-20T02:49:20.969Z,9.10
2019-05-20T02:51:49.799Z,8.53
2019-05-20T02:54:18.833Z,9.27
2019-05-20T02:56:47.892Z,8.50
2019-05-20T02:59:16.749Z,8.10
2019-05-20T03:01:45.668Z,8.73
2019-05-20T03:04:14.526Z,8.67
2019-05-20T03:06:43.500Z,8.20
2019-05-20T03:09:12.767Z,7.93
2019-05-20T03:11:41.876Z,7.40
2019-05-20T03:14:10.715Z,8.63
2019-05-20T03:16:39.698Z,8.53
2019-05-20T03:19:08.639Z,8.83
2019-05-20T03:21:37.525Z,7.77
2019-05-20T03:24:06.449Z,8.17
2019-05-20T03:26:35.343Z,8.27
2019-05-20T03:29:04.347Z,7.73
2019-05-20T03:31:33.201Z,7.90
2019-05-20T03:34:02.141Z,7.27
2019-05-20T03:36:31.417Z,7.67
2019-05-20T03:39:00.391Z,7.60
2019-05-20T03:41:29.567Z,7.53
2019-05-20T03:43:58.397Z,7.30
2019-05-20T03:46:27.191Z,7.33
2019-05-20T03:48:55.997Z,6.80
2019-05-20T03:51:25.017Z,7.87
2019-05-20T03:53:54.187Z,7.93
2019-05-20T03:56:23.007Z,7.97
2019-05-20T03:58:52.375Z,7.83
2019-05-20T04:01:21.363Z,8.33
2019-05-20T04:03:50.243Z,7.50
2019-05-20T04:06:19.047Z,7.70
2019-05-20T04:08:47.995Z,7.90
2019-05-20T04:11:16.816Z,8.13
2019-05-20T04:14:46.872Z,8.43
2019-05-20T04:17:16.193Z,9.23
2019-05-20T04:19:45.276Z,8.07
2019-05-20T04:22:14.136Z,7.33
2019-05-20T04:24:43.133Z,8.67
2019-05-20T04:27:12.241Z,8.17
2019-05-20T04:29:41.368Z,8.90
2019-05-20T04:32:10.205Z,8.53
2019-05-20T04:34:39.129Z,8.40
2019-05-20T04:37:08.035Z,8.90
2019-05-20T04:39:36.889Z,8.97
2019-05-20T04:42:06.931Z,8.63
2019-05-20T04:44:36.259Z,8.83
2019-05-20T04:47:05.265Z,8.87
2019-05-20T04:49:53.404Z,8.07
2019-05-20T04:52:22.621Z,9.33
2019-05-20T04:54:51.461Z,9.00
2019-05-20T04:57:20.328Z,8.53
2019-05-20T04:59:49.142Z,9.00
2019-05-20T05:02:17.940Z,8.67
2019-05-20T05:04:46.745Z,9.30
2019-05-20T05:07:15.533Z,8.73
2019-05-20T05:09:44.339Z,9.30
2019-05-20T05:12:31.350Z,8.83
2019-05-20T05:15:00.272Z,9.10
2019-05-20T05:17:29.374Z,9.43
2019-05-20T05:19:58.288Z,8.90
2019-05-20T05:22:28.354Z,8.60
2019-05-20T05:24:57.351Z,9.27
2019-05-20T05:27:26.223Z,9.43
2019-05-20T05:29:55.084Z,9.20
2019-05-20T05:32:44.759Z,9.03
2019-05-20T05:35:14.358Z,9.80
2019-05-20T05:37:53.884Z,9.30
2019-05-20T05:40:27.724Z,9.33
2019-05-20T05:42:56.664Z,9.37
2019-05-20T05:45:30.699Z,9.90
2019-05-20T05:47:59.636Z,12.33
2019-05-20T05:50:28.550Z,11.83
2019-05-20T05:52:57.373Z,14.47
2019-05-20T05:55:26.351Z,15.00
2019-05-20T05:57:55.319Z,17.93
2019-05-20T06:00:24.271Z,17.43
2019-05-20T06:02:53.852Z,17.80
2019-05-20T06:05:22.697Z,24.73
2019-05-20T06:07:51.537Z,20.07
2019-05-20T06:10:20.906Z,25.97
2019-05-20T06:12:49.825Z,25.13
2019-05-20T06:15:18.770Z,26.73
2019-05-20T06:17:47.632Z,31.57
2019-05-20T06:20:16.419Z,24.47
2019-05-20T06:22:45.345Z,29.97
2019-05-20T06:25:14.170Z,24.37
2019-05-20T06:27:43.061Z,21.80
2019-05-20T06:30:12.008Z,24.83
2019-05-20T06:32:41.535Z,25.23
2019-05-20T06:35:10.644Z,20.93
2019-05-20T06:37:42.423Z,23.93
2019-05-20T06:40:11.203Z,23.03
2019-05-20T06:42:39.989Z,23.57
2019-05-20T06:45:09.913Z,21.17
2019-05-20T06:47:38.706Z,21.80
2019-05-20T06:50:08.420Z,23.10
2019-05-20T06:52:37.324Z,20.97
2019-05-20T06:55:07.270Z,32.23
2019-05-20T06:57:36.153Z,27.83
2019-05-20T07:00:06.280Z,24.30
2019-05-20T07:02:35.096Z,22.47
2019-05-20T07:05:04.356Z,22.77
2019-05-20T07:07:33.196Z,27.37
2019-05-20T07:10:01.979Z,22.07
2019-05-20T07:12:40.515Z,25.77
2019-05-20T07:15:01.442Z,22.67
2019-05-20T07:17:30.387Z,21.67
2019-05-20T07:19:59.301Z,25.73
2019-05-20T07:22:28.057Z,23.63
2019-05-20T07:24:56.853Z,21.67
2019-05-20T07:27:25.780Z,22.30
2019-05-20T07:29:54.574Z,22.10
2019-05-20T07:32:23.518Z,25.13
2019-05-20T07:34:52.362Z,24.27
2019-05-20T07:37:21.261Z,24.93
2019-05-20T07:39:50.224Z,21.27
2019-05-20T07:42:19.084Z,21.60
2019-05-20T07:44:47.863Z,21.53
2019-05-20T07:47:16.709Z,21.23
2019-05-20T07:49:54.693Z,21.10
2019-05-20T07:52:24.089Z,21.00
2019-05-20T07:54:52.941Z,19.07
2019-05-20T07:57:22.207Z,20.70
2019-05-20T07:59:51.212Z,19.87
2019-05-20T08:02:20.180Z,19.40
2019-05-20T08:04:49.177Z,18.90
2019-05-20T08:07:27.818Z,21.60
2019-05-20T08:09:48.820Z,17.80
2019-05-20T08:12:17.644Z,16.97
2019-05-20T08:14:46.474Z,18.47
2019-05-20T08:17:15.271Z,17.07
2019-05-20T08:19:44.165Z,18.00
2019-05-20T08:22:21.798Z,16.13
2019-05-20T08:24:50.976Z,17.83
2019-05-20T08:27:19.763Z,16.73
2019-05-20T08:29:48.659Z,15.93
2019-05-20T08:32:17.536Z,14.80
2019-05-20T08:34:48.078Z,15.50
2019-05-20T08:37:16.863Z,14.10
2019-05-20T08:39:45.679Z,15.03
2019-05-20T08:42:14.477Z,13.60
2019-05-20T08:44:43.293Z,13.33
2019-05-20T08:47:12.102Z,13.13
2019-05-20T08:49:41.323Z,12.80
2019-05-20T08:52:10.326Z,12.83
2019-05-20T08:54:40.484Z,13.53
2019-05-20T08:57:09.525Z,13.67
2019-05-20T08:59:38.421Z,13.00
2019-05-20T09:02:07.347Z,12.10
2019-05-20T09:04:36.133Z,12.30
2019-05-20T09:07:04.984Z,11.93
2019-05-20T09:09:33.861Z,12.73
2019-05-20T09:12:02.731Z,12.83
2019-05-20T09:14:31.546Z,11.07
2019-05-20T09:17:00.529Z,11.47
2019-05-20T09:19:29.418Z,11.33
2019-05-20T09:21:58.330Z,11.43
2019-05-20T09:24:27.174Z,10.13
2019-05-20T09:26:56.056Z,10.03
2019-05-20T09:29:24.903Z,9.93
2019-05-20T09:31:53.850Z,10.23
2019-05-20T09:34:22.634Z,9.50
2019-05-20T09:36:51.519Z,9.10
2019-05-20T09:39:20.354Z,9.30
2019-05-20T09:41:49.300Z,9.53
2019-05-20T09:44:18.133Z,8.33
2019-05-20T09:46:47.075Z,9.47
2019-05-20T09:49:15.896Z,7.63
2019-05-20T09:51:44.691Z,9.83
2019-05-20T09:54:13.498Z,8.07
2019-05-20T09:56:42.399Z,7.73
2019-05-20T09:59:11.274Z,7.13
2019-05-20T10:01:40.536Z,6.80
2019-05-20T10:04:09.488Z,6.40
2019-05-20T10:06:38.302Z,7.07
2019-05-20T10:09:07.439Z,7.30
2019-05-20T10:11:36.265Z,7.93
2019-05-20T10:14:05.107Z,7.13
2019-05-20T10:16:34.218Z,6.30
2019-05-20T10:19:03.005Z,6.10
2019-05-20T10:21:51.201Z,6.53
2019-05-20T10:24:20.127Z,6.20
2019-05-20T10:26:48.996Z,6.47
2019-05-20T10:29:17.792Z,6.07
2019-05-20T10:31:46.595Z,5.63
2019-05-20T10:34:15.452Z,5.43
2019-05-20T10:36:44.344Z,5.60
2019-05-20T10:39:13.211Z,5.57
2019-05-20T10:41:42.092Z,5.50
2019-05-20T10:44:10.925Z,8.33
2019-05-20T10:46:39.741Z,6.10
2019-05-20T10:49:08.577Z,5.97
2019-05-20T10:51:37.393Z,5.03
2019-05-20T10:54:06.190Z,5.77
2019-05-20T10:56:35.007Z,5.70
2019-05-20T10:59:03.829Z,5.43
2019-05-20T11:01:32.702Z,5.10
2019-05-20T11:04:01.489Z,4.87
2019-05-20T11:06:30.288Z,4.97
2019-05-20T11:09:13.059Z,5.57
2019-05-20T11:11:29.647Z,5.37
2019-05-20T11:13:58.527Z,5.37
2019-05-20T11:16:27.566Z,5.57
2019-05-20T11:18:56.428Z,4.90
2019-05-20T11:21:25.254Z,5.50
2019-05-20T11:23:54.101Z,4.73
2019-05-20T11:26:22.978Z,5.17
2019-05-20T11:28:51.865Z,4.97
2019-05-20T11:31:20.682Z,4.87
2019-05-20T11:33:49.603Z,5.63
2019-05-20T11:36:18.513Z,4.70
2019-05-20T11:38:47.390Z,6.20
2019-05-20T11:44:06.212Z,5.70
2019-05-20T11:46:35.005Z,4.33
2019-05-20T11:49:03.917Z,5.13
2019-05-20T11:51:32.731Z,5.00
2019-05-20T11:54:01.537Z,5.13
2019-05-20T11:56:30.372Z,6.53
2019-05-20T11:58:59.228Z,5.43
2019-05-20T12:01:28.186Z,5.60
2019-05-20T12:03:57.009Z,5.17
2019-05-20T12:06:25.855Z,6.07
2019-05-20T12:08:54.672Z,6.07
2019-05-20T12:11:23.478Z,5.00
2019-05-20T12:13:52.379Z,4.97
2019-05-20T12:16:21.180Z,6.20
2019-05-20T12:18:50.098Z,5.10
2019-05-20T12:21:18.868Z,5.60
2019-05-20T12:23:47.761Z,5.50
2019-05-20T12:26:16.574Z,6.20
2019-05-20T12:28:45.444Z,7.00
2019-05-20T12:31:14.269Z,7.70
2019-05-20T12:33:43.206Z,6.63
2019-05-20T12:36:12.144Z,6.93
2019-05-20T12:38:41.037Z,6.07
2019-05-20T12:41:09.811Z,5.03
2019-05-20T12:43:38.712Z,5.60
2019-05-20T12:46:07.534Z,5.80
2019-05-20T12:48:36.462Z,5.07
2019-05-20T12:51:05.401Z,5.03
2019-05-20T12:53:34.218Z,6.03
2019-05-20T12:56:02.997Z,6.63
2019-05-20T12:58:31.808Z,7.73
2019-05-20T13:01:00.691Z,5.70
2019-05-20T13:03:29.705Z,5.73
2019-05-20T13:05:59.062Z,7.43
2019-05-20T13:08:27.956Z,6.67
2019-05-20T13:10:56.741Z,6.77
2019-05-20T13:13:25.528Z,5.97
2019-05-20T13:15:54.348Z,5.90
2019-05-20T13:18:23.139Z,6.77
2019-05-20T13:20:52.140Z,9.13
2019-05-20T13:23:21.279Z,7.47
2019-05-20T13:25:50.159Z,7.87
2019-05-20T13:28:19.161Z,6.27
2019-05-20T13:30:48.041Z,12.23
2019-05-20T13:33:16.925Z,6.63
2019-05-20T13:35:45.751Z,8.47
2019-05-20T13:38:14.989Z,7.10
2019-05-20T13:40:46.897Z,6.90
2019-05-20T13:43:14.460Z,7.10
2019-05-20T13:45:43.430Z,7.33
2019-05-20T13:48:12.210Z,7.50
2019-05-20T13:51:00.534Z,7.77
2019-05-20T13:53:31.542Z,6.97
2019-05-20T13:56:00.603Z,7.23
2019-05-20T13:58:29.500Z,8.63
2019-05-20T14:00:58.484Z,8.53
2019-05-20T14:03:27.571Z,11.10
2019-05-20T14:05:56.483Z,6.00
2019-05-20T14:08:25.312Z,7.90
2019-05-20T14:11:03.498Z,7.97
2019-05-20T14:13:24.876Z,10.53
2019-05-20T14:15:53.839Z,8.17
2019-05-20T14:18:22.729Z,8.63
2019-05-20T14:20:51.711Z,7.00
2019-05-20T14:23:20.609Z,10.07
2019-05-20T14:25:49.689Z,11.57
2019-05-20T14:28:18.930Z,8.80
2019-05-20T14:30:47.779Z,9.83
2019-05-20T14:33:16.759Z,12.43
2019-05-20T14:35:45.565Z,9.00
2019-05-20T14:38:14.381Z,9.40
2019-05-20T14:40:43.813Z,12.63
2019-05-20T14:43:12.678Z,10.77
2019-05-20T14:45:41.762Z,10.00
2019-05-20T14:48:10.736Z,10.63
2019-05-20T14:50:39.547Z,11.60
2019-05-20T14:53:17.373Z,10.80
2019-05-20T14:55:46.358Z,10.83
2019-05-20T14:58:15.395Z,12.83
2019-05-20T15:00:44.266Z,13.53
2019-05-20T15:03:13.413Z,12.60
2019-05-20T15:05:42.446Z,12.83
2019-05-20T15:08:11.406Z,13.67
2019-05-20T15:10:40.274Z,14.03
2019-05-20T15:13:09.233Z,12.97
2019-05-20T15:15:38.435Z,15.67
2019-05-20T15:18:07.267Z,13.30
2019-05-20T15:20:36.272Z,11.80
2019-05-20T15:23:05.192Z,13.30
2019-05-20T15:25:34.096Z,15.63
2019-05-20T15:28:03.013Z,18.07
2019-05-20T15:30:31.879Z,16.30
2019-05-20T15:33:00.880Z,18.07
2019-05-20T15:35:29.807Z,17.17
2019-05-20T15:37:59.123Z,15.10
2019-05-20T15:40:27.951Z,17.13
2019-05-20T15:42:56.775Z,19.57
2019-05-20T15:45:25.633Z,21.53
2019-05-20T15:47:54.588Z,20.13
2019-05-20T15:50:23.545Z,18.13
2019-05-20T15:52:52.396Z,17.93
2019-05-20T15:55:21.407Z,23.73
2019-05-20T15:58:28.596Z,18.90
2019-05-20T16:00:57.485Z,20.23
2019-05-20T16:03:26.296Z,20.27
2019-05-20T16:05:59.795Z,22.80
2019-05-20T16:08:27.178Z,24.83
2019-05-20T16:10:56.051Z,22.93
2019-05-20T16:13:24.952Z,23.13
2019-05-20T16:15:54.248Z,21.83
2019-05-20T16:18:23.056Z,18.50
2019-05-20T16:20:51.979Z,20.43
2019-05-20T16:23:22.337Z,20.23
2019-05-20T16:25:52.355Z,20.87
2019-05-20T16:28:22.216Z,21.80
2019-05-20T16:30:52.076Z,20.90
2019-05-20T16:33:21.825Z,20.07
2019-05-20T16:35:51.686Z,18.20
2019-05-20T16:38:21.526Z,20.43
2019-05-20T16:40:51.173Z,18.73
2019-05-20T16:43:20.955Z,19.60
2019-05-20T16:45:50.892Z,28.63
2019-05-20T16:48:20.809Z,22.80
2019-05-20T16:50:54.009Z,26.80
2019-05-20T16:53:24.121Z,26.23
2019-05-20T16:55:53.993Z,24.87
2019-05-20T16:58:23.694Z,27.60
2019-05-20T17:00:53.381Z,27.37
2019-05-20T17:03:23.101Z,32.80
2019-05-20T17:05:53.091Z,35.43
2019-05-20T17:08:22.787Z,31.17
2019-05-20T17:10:52.398Z,33.10
2019-05-20T17:13:22.127Z,29.60
2019-05-20T17:15:52.027Z,29.20
2019-05-20T17:18:22.015Z,26.87
2019-05-20T17:20:51.075Z,29.60
2019-05-20T17:23:20.066Z,33.57
2019-05-20T17:25:50.789Z,29.00
2019-05-20T17:28:20.135Z,32.83
2019-05-20T17:30:49.316Z,29.17
2019-05-20T17:33:18.333Z,28.33
2019-05-20T17:35:47.476Z,28.37
2019-05-20T17:38:16.309Z,27.73
2019-05-20T17:40:45.385Z,29.43
2019-05-20T17:43:14.223Z,27.80
2019-05-20T17:45:43.158Z,31.10
2019-05-20T17:48:12.099Z,29.93
2019-05-20T17:50:41.330Z,32.80
2019-05-20T17:53:10.410Z,35.33
2019-05-20T17:55:39.378Z,34.77
2019-05-20T17:58:08.244Z,34.97
2019-05-20T18:00:40.303Z,35.33
2019-05-20T18:03:09.350Z,34.70
2019-05-20T18:05:38.362Z,34.87
2019-05-20T18:08:07.443Z,35.63
2019-05-20T18:10:38.228Z,43.67
2019-05-20T18:13:07.089Z,41.63
2019-05-20T18:15:40.202Z,42.30
2019-05-20T18:18:09.167Z,46.87
2019-05-20T18:20:38.276Z,42.73
2019-05-20T18:23:07.213Z,45.33
2019-05-20T18:25:36.096Z,43.60
2019-05-20T18:28:04.911Z,51.17
2019-05-20T18:30:33.772Z,44.00
2019-05-20T18:33:02.580Z,43.23
2019-05-20T18:35:31.415Z,41.80
2019-05-20T18:38:00.301Z,45.30
2019-05-20T18:40:29.131Z,43.07
2019-05-20T18:42:58.004Z,42.73
2019-05-20T18:45:27.209Z,43.50
2019-05-20T18:47:56.133Z,43.43
2019-05-20T18:50:25.069Z,40.83
2019-05-20T18:52:53.936Z,39.50
2019-05-20T18:55:22.752Z,40.17
2019-05-20T18:57:51.615Z,39.37
2019-05-20T19:00:21.015Z,39.43
2019-05-20T19:02:49.968Z,39.17
2019-05-20T19:05:18.993Z,38.10
2019-05-20T19:07:48.026Z,37.77
2019-05-20T19:10:17.023Z,37.93
2019-05-20T19:12:46.095Z,38.10
2019-05-20T19:15:15.142Z,36.80
2019-05-20T19:17:44.065Z,36.40
2019-05-20T19:20:13.228Z,36.00
2019-05-20T19:22:42.082Z,35.30
2019-05-20T19:25:11.911Z,35.90
2019-05-20T19:27:44.672Z,35.83
2019-05-20T19:30:13.535Z,36.07
2019-05-20T19:32:42.424Z,33.23
2019-05-20T19:35:11.281Z,34.80
2019-05-20T19:37:40.089Z,34.13
2019-05-20T19:40:09.349Z,32.60
2019-05-20T19:42:38.938Z,32.47
2019-05-20T19:45:08.168Z,33.27
2019-05-20T19:47:37.119Z,31.17
2019-05-20T19:50:07.795Z,34.27
2019-05-20T19:52:36.854Z,30.93
2019-05-20T19:55:06.159Z,32.07
2019-05-20T19:57:35.761Z,30.30
2019-05-20T20:00:05.560Z,30.87
2019-05-20T20:02:34.547Z,30.40
2019-05-20T20:05:03.640Z,29.53
2019-05-20T20:07:34.492Z,30.73
2019-05-20T20:10:03.408Z,29.20
2019-05-20T20:12:32.303Z,31.33
2019-05-20T20:15:01.123Z,28.00
2019-05-20T20:17:29.946Z,29.50
2019-05-20T20:19:59.131Z,27.90
2019-05-20T20:22:28.108Z,28.90
2019-05-20T20:24:56.941Z,28.80
2019-05-20T20:27:25.806Z,28.23
2019-05-20T20:29:54.812Z,28.43
2019-05-20T20:32:37.577Z,28.83
2019-05-20T20:34:54.377Z,29.10
2019-05-20T20:37:23.248Z,30.13
2019-05-20T20:39:52.138Z,28.60
2019-05-20T20:42:21.031Z,27.87
2019-05-20T20:44:50.174Z,30.77
2019-05-20T20:47:18.985Z,29.93
2019-05-20T20:49:47.754Z,27.33
2019-05-20T20:52:16.569Z,29.57
2019-05-20T20:54:45.363Z,28.27
2019-05-20T20:57:14.239Z,27.27
2019-05-20T20:59:43.059Z,27.33
2019-05-20T21:02:11.928Z,28.37
2019-05-20T21:04:40.972Z,28.23
2019-05-20T21:07:10.324Z,27.83
2019-05-20T21:09:39.268Z,29.27
2019-05-20T21:12:08.202Z,27.47
2019-05-20T21:14:37.124Z,29.07
2019-05-20T21:17:06.229Z,27.50
2019-05-20T21:19:36.391Z,27.77
2019-05-20T21:22:05.315Z,26.47
2019-05-20T21:24:34.204Z,28.07
2019-05-20T21:27:03.046Z,27.50
2019-05-20T21:29:32.590Z,28.60
2019-05-20T21:32:01.768Z,29.30
2019-05-20T21:34:30.672Z,27.57
2019-05-20T21:36:59.642Z,28.57
2019-05-20T21:39:28.606Z,27.53
2019-05-20T21:41:57.622Z,26.33
2019-05-20T21:44:26.468Z,26.13
2019-05-20T21:46:55.338Z,26.80
2019-05-20T21:49:24.533Z,26.73
2019-05-20T21:51:54.701Z,26.00
2019-05-20T21:54:23.847Z,24.50
2019-05-20T21:56:52.987Z,25.60
2019-05-20T21:59:22.144Z,26.40
2019-05-20T22:01:52.609Z,25.43
2019-05-20T22:04:21.786Z,25.43
2019-05-20T22:06:51.394Z,25.07
2019-05-20T22:09:21.086Z,24.90
2019-05-20T22:11:50.406Z,24.77
2019-05-20T22:14:19.776Z,26.07
2019-05-20T22:16:48.922Z,24.97
2019-05-20T22:19:18.087Z,24.67
2019-05-20T22:21:53.503Z,24.73
2019-05-20T22:24:22.692Z,24.40
2019-05-20T22:26:51.823Z,25.00
2019-05-20T22:29:21.004Z,25.10
2019-05-20T22:31:50.375Z,23.67
2019-05-20T22:34:19.868Z,24.50
2019-05-20T22:37:08.200Z,24.00
2019-05-20T22:39:37.435Z,23.40
2019-05-20T22:42:06.619Z,26.80
2019-05-20T22:44:35.840Z,23.80
2019-05-20T22:47:04.950Z,25.70
2019-05-20T22:49:34.077Z,25.27
2019-05-20T22:52:03.243Z,23.90
2019-05-20T22:54:32.531Z,24.40
2019-05-20T22:57:01.687Z,23.60
2019-05-20T22:59:30.840Z,23.20
2019-05-20T23:02:00.059Z,22.93
2019-05-20T23:04:29.243Z,22.50
2019-05-20T23:06:58.456Z,21.37
2019-05-20T23:09:27.614Z,23.20
2019-05-20T23:11:56.801Z,21.63
2019-05-20T23:14:26.351Z,22.87
2019-05-20T23:16:55.475Z,24.77
2019-05-20T23:19:24.600Z,20.23
2019-05-20T23:21:53.886Z,21.03
2019-05-20T23:24:22.956Z,22.23
2019-05-20T23:26:52.088Z,21.83
2019-05-20T23:29:21.272Z,19.70
2019-05-20T23:31:50.462Z,20.90
2019-05-20T23:34:19.669Z,21.40
2019-05-20T23:36:48.860Z,21.07
2019-05-20T23:39:18.059Z,18.80
2019-05-20T23:41:47.199Z,20.83
2019-05-20T23:44:16.371Z,22.20
2019-05-20T23:46:45.562Z,18.07
2019-05-20T23:49:14.698Z,18.53
2019-05-20T23:51:43.852Z,20.37
2019-05-20T23:54:13.289Z,19.40
2019-05-20T23:56:42.426Z,18.77
2019-05-20T23:59:11.604Z,19.30
